Time;durP1;ratioP1;P1;durP2;ratioP2;P2;SDS_P1;SDS_P2;PMS_P1;PMS_P2;Temp;Humidity;BMP_temperature;BMP_pressure;BME280_temperature;BME280_humidity;BME280_pressure;Samples;Min_cycle;Max_cycle;Signal;HPM_P1;HPM_P2
2024/01/03 00:03:25;;;;;;;1.55;1.50;;;9.50;99.90;;;9.74;100.00;96210.69;10408461;28;20319;-66
2024/01/03 00:08:34;;;;;;;1.50;1.50;;;9.40;99.90;;;9.81;100.00;96209.19;10443918;28;20696;-66
2024/01/03 00:14:07;;;;;;;1.40;1.40;;;9.50;99.90;;;9.68;100.00;96202.84;10470944;28;20224;-66
2024/01/03 00:19:21;;;;;;;1.60;1.60;;;9.60;99.90;;;9.72;100.00;96219.09;10452000;28;20247;-66
2024/01/03 00:24:26;;;;;;;1.70;1.70;;;9.50;99.90;;;9.80;100.00;96213.44;10416295;28;20229;-66
2024/01/03 00:29:53;;;;;;;1.27;1.27;;;9.60;99.90;;;9.80;100.00;96215.13;10415777;28;20323;-65
2024/01/03 00:34:59;;;;;;;1.50;1.40;;;9.70;99.90;;;9.87;100.00;96200.06;10406292;28;20728;-66
2024/01/03 00:40:38;;;;;;;1.43;1.37;;;9.70;99.90;;;9.94;100.00;96216.44;10455339;28;20712;-66
2024/01/03 00:45:42;;;;;;;1.48;1.40;;;9.60;99.90;;;9.87;100.00;96229.81;10424963;28;20225;-66
2024/01/03 00:50:45;;;;;;;1.10;1.00;;;9.40;99.90;;;9.84;99.83;96215.28;10420091;28;20450;-66
2024/01/03 00:55:50;;;;;;;1.98;1.50;;;9.30;99.90;;;9.76;98.88;96221.81;10417761;28;20850;-66
2024/01/03 01:00:53;;;;;;;1.40;1.10;;;9.40;99.90;;;9.82;98.34;96234.78;10425654;28;20225;-66
2024/01/03 01:05:57;;;;;;;1.23;1.13;;;9.40;99.90;;;9.87;97.84;96223.03;10413543;28;20624;-64
2024/01/03 01:11:01;;;;;;;2.72;1.58;;;9.40;99.90;;;9.97;97.38;96231.84;10418369;28;20239;-66
2024/01/03 01:16:05;;;;;;;1.60;1.40;;;9.50;99.90;;;9.97;97.09;96248.88;10463559;28;20315;-66
2024/01/03 01:21:08;;;;;;;1.48;1.38;;;9.50;99.90;;;10.06;94.97;96244.06;10469780;28;20232;-66
2024/01/03 01:26:12;;;;;;;1.60;1.50;;;9.60;99.90;;;10.05;93.54;96260.19;10469907;28;20235;-67
2024/01/03 01:31:16;;;;;;;1.88;1.48;;;9.70;99.90;;;10.02;94.37;96263.50;10412362;28;20233;-66
2024/01/03 01:36:19;;;;;;;1.98;1.60;;;9.60;99.90;;;9.99;93.81;96254.91;10454387;28;20224;-67
2024/01/03 01:41:23;;;;;;;1.90;1.65;;;9.70;99.90;;;9.96;94.08;96270.06;10443704;28;20602;-67
2024/01/03 01:46:27;;;;;;;1.27;1.20;;;9.50;99.90;;;9.90;94.04;96270.75;10412458;28;20237;-66
2024/01/03 01:51:30;;;;;;;2.35;1.40;;;9.40;99.90;;;9.86;94.18;96272.31;10421419;28;20225;-66
2024/01/03 01:56:35;;;;;;;1.35;1.33;;;9.30;99.90;;;9.70;95.36;96278.59;10406143;28;20232;-66
2024/01/03 02:01:39;;;;;;;1.73;1.60;;;9.00;99.90;;;9.67;95.39;96275.94;10405066;28;20276;-66
2024/01/03 02:06:42;;;;;;;1.67;1.40;;;9.20;99.90;;;9.64;96.05;96273.28;10403947;28;20225;-66
2024/01/03 02:11:48;;;;;;;1.63;1.30;;;9.20;99.90;;;9.70;96.84;96270.09;10408874;28;20407;-66
2024/01/03 02:16:51;;;;;;;1.98;1.58;;;9.40;99.90;;;9.84;95.70;96278.19;10466780;28;20315;-67
2024/01/03 02:21:56;;;;;;;2.55;1.58;;;9.60;99.90;;;9.90;96.18;96281.84;10438021;28;20230;-67
2024/01/03 02:27:00;;;;;;;1.73;1.45;;;9.70;99.90;;;9.89;96.53;96272.44;10421322;28;20229;-66
2024/01/03 02:32:03;;;;;;;1.85;1.20;;;9.70;99.90;;;9.98;96.40;96293.97;10434332;28;20249;-67
2024/01/03 02:37:10;;;;;;;1.65;1.55;;;9.60;99.90;;;9.98;96.88;96293.97;10411790;28;20218;-66
2024/01/03 02:42:13;;;;;;;1.45;1.33;;;9.50;99.90;;;9.88;96.28;96291.13;10417916;28;20228;-67
2024/01/03 02:47:16;;;;;;;1.20;1.00;;;9.30;99.90;;;9.87;96.58;96293.59;10426733;28;20221;-66
2024/01/03 02:52:22;;;;;;;1.30;1.30;;;9.30;99.90;;;9.92;95.41;96295.50;10422672;28;20229;-67
2024/01/03 02:57:26;;;;;;;1.50;1.40;;;9.30;99.90;;;9.87;95.38;96297.03;10424601;28;20843;-66
2024/01/03 03:02:29;;;;;;;1.58;1.50;;;9.30;99.90;;;9.95;94.32;96293.88;10433760;28;20722;-66
2024/01/03 03:07:34;;;;;;;1.52;1.20;;;9.40;99.90;;;9.90;95.47;96286.94;10427158;28;20359;-66
2024/01/03 03:12:37;;;;;;;2.00;1.60;;;9.30;99.90;;;9.96;95.16;96300.69;10425305;28;20225;-67
2024/01/03 03:17:40;;;;;;;1.42;1.33;;;9.30;99.90;;;9.92;97.40;96305.69;10418934;28;20236;-66
2024/01/03 03:22:45;;;;;;;1.25;1.25;;;9.30;99.90;;;9.83;99.79;96307.94;10446918;28;20319;-67
2024/01/03 03:27:48;;;;;;;1.23;1.20;;;9.20;99.90;;;9.80;100.00;96300.19;10467354;28;20221;-66
2024/01/03 03:32:51;;;;;;;2.53;1.45;;;9.20;99.90;;;9.63;100.00;96306.38;10419805;28;20223;-66
2024/01/03 03:37:57;;;;;;;2.03;1.92;;;9.00;99.90;;;9.44;100.00;96295.53;10407606;28;20709;-66
2024/01/03 03:43:00;;;;;;;1.45;1.35;;;8.90;99.90;;;9.43;100.00;96287.81;10429077;28;20229;-66
2024/01/03 03:48:05;;;;;;;1.55;1.45;;;8.80;99.90;;;9.33;100.00;96290.84;10464757;28;20225;-67
2024/01/03 03:53:10;;;;;;;1.77;1.67;;;8.70;99.90;;;9.33;100.00;96284.09;10468881;28;20232;-67
2024/01/03 03:58:14;;;;;;;1.30;1.30;;;8.70;99.90;;;9.53;100.00;96286.47;10417569;28;20224;-67
2024/01/03 04:03:17;;;;;;;1.40;1.30;;;8.70;99.90;;;9.55;100.00;96288.25;10416903;28;20233;-66
2024/01/03 04:08:21;;;;;;;1.70;1.60;;;8.80;99.90;;;9.32;100.00;96294.22;10419283;28;20788;-66
2024/01/03 04:13:25;;;;;;;2.15;1.70;;;8.60;99.90;;;9.28;100.00;96297.47;10431318;28;20220;-67
2024/01/03 04:18:28;;;;;;;2.08;1.65;;;8.70;99.90;;;9.18;100.00;96292.03;10448824;28;20729;-67
2024/01/03 04:23:33;;;;;;;1.83;1.67;;;8.60;99.90;;;9.24;100.00;96293.94;10473933;28;20609;-65
2024/01/03 04:28:36;;;;;;;1.77;1.67;;;8.60;99.90;;;9.27;100.00;96309.38;10478473;28;20232;-66
2024/01/03 04:33:39;;;;;;;1.77;1.67;;;8.70;99.90;;;9.05;100.00;96322.97;10440775;28;20902;-66
2024/01/03 04:38:44;;;;;;;1.90;1.70;;;8.50;99.90;;;8.91;100.00;96335.19;10424886;28;20229;-67
2024/01/03 04:43:47;;;;;;;1.58;1.48;;;8.30;99.90;;;8.69;100.00;96340.25;10408177;28;20796;-66
2024/01/03 04:48:50;;;;;;;1.70;1.60;;;8.10;99.90;;;8.60;100.00;96334.81;10424443;28;20228;-66
2024/01/03 04:53:55;;;;;;;1.70;1.60;;;8.00;99.90;;;8.46;100.00;96335.09;10474993;28;20232;-66
2024/01/03 04:58:59;;;;;;;1.90;1.80;;;7.90;99.90;;;8.35;100.00;96338.84;10465010;28;20814;-66
2024/01/03 05:04:02;;;;;;;1.63;1.50;;;7.70;99.90;;;8.37;100.00;96337.25;10461363;28;20604;-66
2024/01/03 05:09:07;;;;;;;2.13;1.70;;;7.70;99.90;;;8.39;100.00;96339.91;10423304;28;20248;-66
2024/01/03 05:14:10;;;;;;;1.70;1.60;;;7.80;99.90;;;8.45;100.00;96333.38;10420376;28;20321;-66
2024/01/03 05:19:13;;;;;;;2.83;1.80;;;7.90;99.90;;;8.55;100.00;96342.25;10423014;28;20220;-66
2024/01/03 05:24:19;;;;;;;1.73;1.60;;;7.90;99.90;;;8.54;100.00;96349.03;10427041;28;20237;-67
2024/01/03 05:29:23;;;;;;;1.93;1.73;;;7.90;99.90;;;8.49;100.00;96342.88;10425194;28;20724;-66
2024/01/03 05:34:26;;;;;;;2.23;2.03;;;7.80;99.90;;;8.42;100.00;96353.63;10459533;28;20653;-67
2024/01/03 05:39:30;;;;;;;1.92;1.83;;;7.80;99.90;;;8.36;100.00;96358.44;10430605;28;20647;-66
2024/01/03 05:44:34;;;;;;;1.90;1.60;;;7.70;99.90;;;8.28;100.00;96369.97;10418626;28;20312;-67
2024/01/03 05:49:37;;;;;;;1.50;1.40;;;7.60;99.90;;;8.19;100.00;96377.25;10440181;28;20228;-66
2024/01/03 05:54:41;;;;;;;2.03;1.80;;;7.50;99.90;;;8.11;100.00;96385.41;10475099;28;20224;-66
2024/01/03 05:59:45;;;;;;;4.07;1.90;;;7.40;99.90;;;8.04;100.00;96378.31;10474003;28;20237;-66
2024/01/03 06:04:48;;;;;;;2.67;2.30;;;7.30;99.90;;;8.03;100.00;96390.97;10474366;28;20251;-66
2024/01/03 06:09:53;;;;;;;3.60;2.27;;;7.30;99.90;;;8.02;100.00;96387.56;10472516;28;20232;-66
2024/01/03 06:14:57;;;;;;;3.20;2.47;;;7.30;99.90;;;7.99;100.00;96384.88;10475036;28;20227;-66
2024/01/03 06:20:00;;;;;;;2.70;2.17;;;7.40;99.90;;;8.16;100.00;96394.94;10453623;28;20248;-66
2024/01/03 06:25:05;;;;;;;2.10;1.90;;;7.40;99.90;;;8.31;100.00;96405.75;10475756;28;20637;-66
2024/01/03 06:30:10;;;;;;;1.80;1.60;;;7.60;99.90;;;8.60;100.00;96406.09;10470864;28;20232;-66
2024/01/03 06:35:13;;;;;;;3.63;2.17;;;7.90;99.90;;;8.70;100.00;96403.09;10457440;28;20223;-66
2024/01/03 06:40:20;;;;;;;2.70;1.90;;;8.00;99.90;;;8.81;99.46;96386.56;10418081;28;20241;-66
2024/01/03 06:45:24;;;;;;;1.70;1.52;;;8.20;99.90;;;9.09;97.50;96377.47;10424815;28;20376;-67
2024/01/03 06:50:27;;;;;;;2.50;2.00;;;8.50;99.90;;;8.97;97.68;96388.94;10420973;28;20240;-67
2024/01/03 06:55:31;;;;;;;3.53;1.97;;;8.50;99.90;;;9.23;96.62;96392.47;10421555;28;20608;-67
2024/01/03 07:00:34;;;;;;;2.45;1.80;;;8.60;99.90;;;9.31;95.06;96387.69;10456591;28;20297;-67
2024/01/03 07:05:37;;;;;;;2.40;2.20;;;8.50;99.90;;;9.09;96.20;96402.97;10477706;28;20236;-66
2024/01/03 07:10:42;;;;;;;1.65;1.55;;;8.50;99.90;;;9.08;96.18;96402.09;10465482;28;20777;-67
2024/01/03 07:15:46;;;;;;;2.25;2.05;;;8.40;99.90;;;9.31;95.12;96389.38;10473332;28;20270;-66
2024/01/03 07:20:49;;;;;;;1.85;1.75;;;8.60;99.90;;;9.43;94.53;96398.34;10469243;28;20248;-66
2024/01/03 07:25:53;;;;;;;1.67;1.40;;;8.70;99.90;;;9.40;94.38;96398.22;10473191;28;20258;-67
2024/01/03 07:30:56;;;;;;;2.35;1.67;;;8.80;99.90;;;9.54;94.02;96392.78;10448504;28;20311;-66
2024/01/03 07:35:59;;;;;;;1.42;1.33;;;8.80;99.90;;;9.77;92.50;96394.50;10434410;28;20703;-66
2024/01/03 07:41:04;;;;;;;2.00;1.70;;;9.10;99.90;;;9.80;92.15;96392.03;10423757;28;20746;-66
2024/01/03 07:46:07;;;;;;;2.42;1.63;;;9.20;99.90;;;9.86;91.35;96397.38;10405314;28;20720;-67
2024/01/03 07:51:11;;;;;;;2.38;1.63;;;9.40;99.90;;;9.80;90.78;96403.94;10451586;28;20225;-66
2024/01/03 07:56:16;;;;;;;1.98;1.65;;;9.40;99.90;;;9.88;90.61;96405.97;10452379;28;20786;-65
2024/01/03 08:01:21;;;;;;;1.80;1.60;;;9.40;99.90;;;9.85;91.15;96397.31;10419977;28;20395;-65
2024/01/03 08:06:25;;;;;;;1.70;1.60;;;9.30;99.90;;;9.91;91.27;96390.75;10406986;28;20232;-66
2024/01/03 08:11:29;;;;;;;2.20;1.67;;;9.30;99.90;;;10.05;89.07;96395.47;10419940;28;20242;-66
2024/01/03 08:16:33;;;;;;;2.40;2.20;;;9.40;99.90;;;10.06;89.86;96400.63;10416988;28;20237;-66
2024/01/03 08:21:36;;;;;;;3.72;2.00;;;9.60;99.90;;;10.10;89.63;96387.19;10421797;28;20250;-65
2024/01/03 08:26:41;;;;;;;1.67;1.58;;;9.60;99.90;;;10.29;87.68;96383.59;10412058;28;21453;-65
2024/01/03 08:31:45;;;;;;;3.17;1.98;;;9.80;99.90;;;10.17;88.54;96372.06;10409980;28;20309;-65
2024/01/03 08:36:49;;;;;;;2.33;1.90;;;9.70;99.90;;;10.25;88.89;96376.63;10408891;28;20225;-66
2024/01/03 08:41:54;;;;;;;2.25;1.40;;;9.70;99.90;;;10.40;87.66;96368.63;10407836;28;20237;-65
2024/01/03 08:46:58;;;;;;;1.63;1.52;;;10.00;99.90;;;10.56;86.72;96352.13;10410944;28;20229;-66
2024/01/03 08:52:01;;;;;;;1.65;1.40;;;10.10;99.90;;;10.41;87.07;96354.16;10418342;28;20244;-66
2024/01/03 08:57:08;;;;;;;2.10;1.77;;;9.90;99.90;;;10.58;85.91;96368.34;10456181;28;20229;-65
2024/01/03 09:02:12;;;;;;;3.88;2.20;;;10.10;99.90;;;10.58;85.01;96364.09;10457870;28;20599;-66
2024/01/03 09:07:15;;;;;;;2.97;1.70;;;10.30;99.90;;;10.62;86.19;96374.47;10453035;28;20238;-66
2024/01/03 09:12:21;;;;;;;2.97;2.15;;;10.40;99.90;;;10.70;87.09;96371.34;10481536;28;20242;-64
2024/01/03 09:17:24;;;;;;;2.88;2.30;;;10.30;99.90;;;10.56;89.05;96383.66;10442196;28;20319;-66
2024/01/03 09:22:27;;;;;;;2.85;2.03;;;10.20;99.90;;;10.64;87.99;96380.47;10460141;28;20318;-66
2024/01/03 09:27:32;;;;;;;2.65;2.25;;;10.20;99.90;;;10.69;88.91;96400.25;10443546;28;20727;-65
2024/01/03 09:32:35;;;;;;;2.42;2.22;;;10.10;99.90;;;10.74;87.74;96393.59;10444778;28;20298;-67
2024/01/03 09:37:38;;;;;;;2.55;1.90;;;10.20;99.90;;;10.79;87.49;96394.63;10439648;28;20236;-66
2024/01/03 09:42:43;;;;;;;2.97;1.90;;;10.30;99.90;;;10.79;85.81;96392.06;10449341;28;20228;-66
2024/01/03 09:47:47;;;;;;;2.03;1.65;;;10.40;99.90;;;10.79;86.21;96397.19;10441132;28;20219;-65
2024/01/03 09:52:52;;;;;;;2.00;1.90;;;10.40;99.90;;;10.81;86.34;96405.75;10448123;28;20594;-66
2024/01/03 09:57:57;;;;;;;3.65;2.28;;;10.40;99.90;;;10.72;87.58;96400.34;10438612;28;20226;-65
2024/01/03 10:03:02;;;;;;;2.83;1.60;;;10.30;99.90;;;10.69;87.14;96384.03;10447105;28;20225;-65
2024/01/03 10:08:16;;;;;;;2.65;2.03;;;10.30;99.90;;;10.68;87.28;96393.41;10446228;28;20227;-66
2024/01/03 10:13:24;;;;;;;2.78;1.90;;;10.20;99.90;;;10.69;86.95;96394.28;10441643;28;20229;-65
2024/01/03 10:18:27;;;;;;;3.55;1.45;;;10.30;99.90;;;10.87;86.73;96383.75;10440998;28;20384;-67
2024/01/03 10:23:31;;;;;;;3.55;1.95;;;10.60;99.90;;;10.94;87.09;96381.47;10435586;28;20249;-66
2024/01/03 10:28:39;;;;;;;1.95;1.60;;;10.70;99.90;;;11.00;86.76;96376.53;10439889;28;20639;-66
2024/01/03 10:33:42;;;;;;;2.55;1.50;;;10.60;99.90;;;11.09;88.03;96375.09;10446742;28;20625;-65
2024/01/03 10:39:05;;;;;;;3.22;1.58;;;10.70;99.90;;;10.94;91.15;96393.38;10444406;28;20225;-66
2024/01/03 10:44:12;;;;;;;4.30;1.92;;;10.70;99.90;;;10.57;93.69;96397.28;10447714;28;20225;-67
2024/01/03 10:49:16;;;;;;;3.05;1.70;;;10.30;99.90;;;10.63;93.53;96387.28;10465614;28;20261;-66
2024/01/03 10:54:21;;;;;;;5.28;1.90;;;10.20;99.90;;;10.75;94.13;96403.00;10455601;28;20228;-66
2024/01/03 10:59:32;;;;;;;2.97;1.77;;;10.40;99.90;;;10.87;93.99;96388.88;10448007;28;20221;-67
2024/01/03 11:04:46;;;;;;;3.70;1.77;;;10.40;99.90;;;11.05;91.77;96390.34;10447616;28;20236;-65
2024/01/03 11:09:49;;;;;;;2.97;2.00;;;10.60;99.90;;;11.19;90.35;96392.47;10451730;28;20229;-66
2024/01/03 11:14:54;;;;;;;4.28;2.25;;;10.70;99.90;;;11.33;89.83;96403.09;10463109;28;20232;-66
2024/01/03 11:20:08;;;;;;;3.95;2.45;;;10.90;99.90;;;11.28;88.00;96411.50;10454397;28;20236;-66
2024/01/03 11:25:11;;;;;;;4.47;2.95;;;11.00;99.90;;;11.23;86.77;96402.81;10451541;28;20351;-67
2024/01/03 11:30:42;;;;;;;5.20;2.47;;;11.00;99.90;;;11.35;86.59;96404.00;10456824;28;20236;-67
2024/01/03 11:35:48;;;;;;;4.57;2.38;;;10.90;99.90;;;11.37;86.34;96408.34;10455808;28;20311;-66
2024/01/03 11:40:52;;;;;;;3.05;1.80;;;10.90;99.90;;;11.48;84.77;96385.66;10447796;28;20237;-67
2024/01/03 11:46:08;;;;;;;2.28;1.85;;;10.90;99.90;;;11.43;83.56;96392.31;10457120;28;20229;-67
2024/01/03 11:51:23;;;;;;;1.90;1.60;;;11.00;99.90;;;11.55;83.97;96381.59;10450239;28;20707;-67
2024/01/03 11:56:28;;;;;;;1.98;1.40;;;11.10;99.90;;;11.77;82.78;96380.50;10457590;28;20235;-66
2024/01/03 12:01:33;;;;;;;1.60;1.50;;;11.40;99.90;;;12.17;80.88;96383.38;10446384;28;20327;-66
2024/01/03 12:06:40;;;;;;;1.95;1.27;;;11.70;99.90;;;12.18;77.56;96382.53;10455471;28;20221;-67
2024/01/03 12:11:43;;;;;;;2.15;1.90;;;11.90;99.90;;;12.08;78.37;96379.72;10449699;28;20237;-66
2024/01/03 12:16:49;;;;;;;1.48;1.38;;;11.60;99.90;;;12.04;79.01;96383.84;10449381;28;20220;-66
2024/01/03 12:21:58;;;;;;;2.50;1.63;;;11.50;99.90;;;11.91;79.50;96379.25;10482653;28;20616;-67
2024/01/03 12:27:01;;;;;;;2.60;1.63;;;11.40;99.90;;;11.92;78.15;96357.91;10415393;28;20241;-67
2024/01/03 12:32:15;;;;;;;3.78;1.40;;;11.50;99.90;;;11.93;78.57;96359.66;10445135;28;20220;-67
2024/01/03 12:37:19;;;;;;;2.63;1.70;;;11.60;99.90;;;11.89;79.27;96351.03;10499934;28;20236;-66
2024/01/03 12:42:22;;;;;;;2.65;1.83;;;11.50;99.90;;;11.90;78.87;96357.00;10500355;28;20236;-65
2024/01/03 12:47:42;;;;;;;2.08;1.65;;;11.50;99.90;;;11.73;81.88;96349.72;10501169;28;20238;-66
2024/01/03 12:52:45;;;;;;;1.85;1.55;;;11.30;99.90;;;11.55;81.45;96336.38;10503810;28;20224;-66
2024/01/03 12:57:49;;;;;;;1.70;1.60;;;11.10;99.90;;;11.50;81.26;96335.38;10497690;28;20223;-66
2024/01/03 13:02:53;;;;;;;4.90;2.10;;;11.20;99.90;;;11.52;80.23;96320.94;10465793;28;20274;-65
2024/01/03 13:07:57;;;;;;;1.88;1.25;;;11.30;99.90;;;11.68;80.47;96318.00;10447938;28;20243;-66
2024/01/03 13:13:00;;;;;;;1.48;1.48;;;11.40;99.90;;;11.64;80.74;96302.50;10493030;28;21162;-66
2024/01/03 13:18:05;;;;;;;1.63;1.40;;;11.40;99.90;;;11.76;79.93;96294.28;10489566;28;20644;-67
2024/01/03 13:23:08;;;;;;;3.63;1.30;;;11.40;99.90;;;11.79;80.53;96309.72;10491796;28;20340;-68
2024/01/03 13:28:12;;;;;;;2.30;1.55;;;11.40;99.90;;;11.92;81.27;96293.91;10493326;28;20297;-68
2024/01/03 13:33:16;;;;;;;1.20;1.10;;;11.40;99.90;;;11.98;79.90;96291.50;10410384;28;20307;-67
2024/01/03 13:38:20;;;;;;;2.17;1.38;;;11.60;99.90;;;11.89;78.40;96286.16;10406122;28;20257;-67
2024/01/03 13:43:24;;;;;;;1.75;1.27;;;11.50;99.90;;;11.82;79.68;96274.88;10426498;28;20229;-66
2024/01/03 13:48:29;;;;;;;3.75;1.60;;;11.40;99.90;;;11.67;79.38;96277.00;10484615;28;20223;-67
2024/01/03 13:53:32;;;;;;;2.28;1.50;;;11.10;99.90;;;11.66;80.64;96278.69;10492524;28;20637;-65
2024/01/03 13:58:36;;;;;;;1.88;1.52;;;11.20;99.90;;;11.73;78.54;96284.84;10460705;28;20220;-66
2024/01/03 14:03:40;;;;;;;2.53;1.90;;;11.10;99.90;;;11.70;78.50;96282.19;10493695;28;20347;-66
2024/01/03 14:08:46;;;;;;;2.10;1.90;;;11.30;99.90;;;11.56;81.24;96293.75;10447973;28;20267;-67
2024/01/03 14:13:50;;;;;;;5.57;4.05;;;11.00;99.90;;;11.36;83.60;96288.06;10446603;28;20645;-67
2024/01/03 14:18:54;;;;;;;7.47;4.75;;;10.90;99.90;;;11.13;86.05;96285.75;10481750;28;20727;-66
2024/01/03 14:23:58;;;;;;;15.13;8.85;;;10.50;99.90;;;10.99;87.12;96277.66;10495000;28;20235;-66
2024/01/03 14:29:03;;;;;;;7.18;4.68;;;10.50;99.90;;;11.12;86.04;96278.88;10450360;28;20235;-66
2024/01/03 14:34:07;;;;;;;5.18;3.03;;;10.60;99.90;;;11.00;86.09;96275.97;10411167;28;20702;-67
2024/01/03 14:39:11;;;;;;;32.10;18.80;;;10.50;99.90;;;11.03;86.96;96270.94;10490127;28;20813;-68
2024/01/03 14:44:14;;;;;;;5.80;3.28;;;10.50;99.90;;;10.88;88.16;96267.94;10459282;28;20806;-66
2024/01/03 14:49:18;;;;;;;4.68;2.15;;;10.20;99.90;;;10.90;89.12;96276.50;10405430;28;20750;-67
2024/01/03 14:54:22;;;;;;;4.38;2.92;;;10.20;99.90;;;10.86;89.14;96272.13;10407422;28;20233;-69
2024/01/03 14:59:25;;;;;;;3.78;1.80;;;10.30;99.90;;;10.66;90.89;96276.63;10403207;28;20233;-66
2024/01/03 15:04:29;;;;;;;3.05;2.30;;;10.10;99.90;;;10.74;91.50;96262.41;10405356;28;20231;-67
2024/01/03 15:09:33;;;;;;;2.70;1.60;;;10.00;99.90;;;10.66;90.58;96262.16;10404570;28;20237;-66
2024/01/03 15:14:36;;;;;;;3.03;2.10;;;10.10;99.90;;;10.63;89.37;96244.19;10486556;28;20315;-65
2024/01/03 15:19:41;;;;;;;3.38;2.05;;;10.10;99.90;;;10.79;88.27;96246.41;10485777;28;20248;-66
2024/01/03 15:24:44;;;;;;;2.55;2.20;;;10.20;99.90;;;10.76;87.61;96248.00;10496550;28;20235;-66
2024/01/03 15:29:48;;;;;;;3.97;3.20;;;10.20;99.90;;;10.67;87.83;96223.00;10456410;28;20364;-67
2024/01/03 15:34:52;;;;;;;4.75;4.25;;;10.10;99.90;;;10.85;86.30;96237.19;10407938;28;20304;-67
2024/01/03 15:39:55;;;;;;;2.03;1.83;;;10.30;99.90;;;10.89;84.82;96239.00;10436496;28;20228;-68
2024/01/03 15:45:00;;;;;;;2.70;1.50;;;10.30;99.90;;;10.77;84.92;96232.69;10484585;28;20234;-67
2024/01/03 15:50:06;;;;;;;4.38;3.97;;;10.30;99.90;;;10.73;84.12;96235.09;10477252;28;20277;-66
2024/01/03 15:55:10;;;;;;;2.55;2.03;;;10.20;99.90;;;10.54;85.14;96234.56;10487361;28;20314;-67
2024/01/03 16:00:14;;;;;;;2.20;1.55;;;10.10;99.90;;;10.59;84.01;96215.13;10490099;28;20236;-67
2024/01/03 16:05:19;;;;;;;2.05;1.90;;;10.00;99.90;;;10.58;84.32;96217.63;10402697;28;20744;-68
2024/01/03 16:10:22;;;;;;;2.63;2.40;;;9.90;99.90;;;10.50;84.71;96225.09;10409000;28;20325;-68
2024/01/03 16:15:27;;;;;;;4.05;1.95;;;9.90;99.90;;;10.46;85.87;96205.34;10412591;28;20507;-67
2024/01/03 16:20:32;;;;;;;2.53;2.17;;;9.80;99.90;;;10.35;85.70;96205.00;10415170;28;20605;-66
2024/01/03 16:25:35;;;;;;;1.95;1.83;;;9.80;99.90;;;10.56;84.95;96206.53;10502427;28;20748;-66
2024/01/03 16:30:38;;;;;;;3.33;1.55;;;9.80;99.90;;;10.71;82.10;96189.06;10492985;28;20304;-65
2024/01/03 16:35:43;;;;;;;3.28;1.70;;;10.10;99.90;;;10.87;81.74;96189.50;10496425;28;20312;-66
2024/01/03 16:40:46;;;;;;;1.92;1.60;;;10.40;99.90;;;10.87;82.37;96190.38;10495538;28;20224;-65
2024/01/03 16:45:50;;;;;;;3.17;1.45;;;10.20;99.90;;;10.77;83.32;96178.16;10496243;28;20235;-66
2024/01/03 16:50:54;;;;;;;3.25;2.05;;;10.20;99.90;;;10.72;82.89;96178.03;10492639;28;20228;-66
2024/01/03 16:55:58;;;;;;;4.00;2.80;;;10.10;99.90;;;10.79;82.99;96172.28;10497778;28;20240;-65
2024/01/03 17:01:01;;;;;;;11.13;8.45;;;10.10;99.90;;;10.60;84.37;96170.88;10493529;28;20622;-66
2024/01/03 17:06:08;;;;;;;3.22;2.38;;;9.90;99.90;;;10.68;83.68;96168.56;10427709;28;20345;-66
2024/01/03 17:11:13;;;;;;;7.32;5.20;;;9.90;99.90;;;10.57;85.22;96170.78;10497762;28;20231;-66
2024/01/03 17:16:17;;;;;;;5.30;4.80;;;9.80;99.90;;;10.52;85.34;96176.56;10420847;28;20227;-67
2024/01/03 17:21:22;;;;;;;3.47;3.10;;;9.70;99.90;;;10.57;85.15;96187.81;10407629;28;20239;-67
2024/01/03 17:26:29;;;;;;;3.50;3.20;;;9.70;99.90;;;10.44;87.66;96180.59;10490854;28;20262;-66
2024/01/03 17:31:34;;;;;;;5.20;3.00;;;9.70;99.90;;;10.47;87.82;96163.69;10493493;28;20227;-65
2024/01/03 17:36:40;;;;;;;2.17;2.05;;;9.70;99.90;;;10.34;88.33;96146.25;10412837;28;20594;-67
2024/01/03 17:41:45;;;;;;;2.75;2.40;;;9.60;99.90;;;10.38;88.13;96143.81;10405668;28;20946;-66
2024/01/03 17:46:48;;;;;;;4.20;3.80;;;9.70;99.90;;;10.34;87.02;96142.00;10492813;28;20224;-65
2024/01/03 17:51:52;;;;;;;6.35;5.13;;;9.60;99.90;;;10.38;86.90;96143.81;10502103;28;20314;-66
2024/01/03 17:56:56;;;;;;;4.82;3.42;;;9.60;99.90;;;10.19;89.78;96159.38;10422542;28;20308;-65
2024/01/03 18:01:59;;;;;;;4.50;3.88;;;9.50;99.90;;;9.96;92.10;96138.25;10409287;28;20233;-65
2024/01/03 18:07:03;;;;;;;3.70;3.40;;;9.40;99.90;;;10.11;90.04;96142.97;10409433;28;20296;-66
2024/01/03 18:12:08;;;;;;;3.15;2.50;;;9.60;99.90;;;9.92;92.63;96161.94;10409662;28;20229;-66
2024/01/03 18:17:12;;;;;;;3.22;2.47;;;9.50;99.90;;;9.78;95.75;96169.13;10417050;28;20236;-65
2024/01/03 18:22:17;;;;;;;5.47;3.40;;;9.20;99.90;;;9.60;97.86;96199.16;10412063;28;20260;-65
2024/01/03 18:27:21;;;;;;;4.28;3.78;;;9.20;99.90;;;9.32;100.00;96218.59;10413719;28;20229;-65
2024/01/03 18:32:26;;;;;;;2.75;2.50;;;8.90;99.90;;;9.15;100.00;96205.25;10418609;28;20235;-65
2024/01/03 18:37:31;;;;;;;1.70;1.60;;;9.00;99.90;;;8.95;100.00;96217.28;10426801;28;20258;-65
2024/01/03 18:42:36;;;;;;;1.63;1.53;;;8.80;99.90;;;8.80;100.00;96212.50;10486882;28;20234;-64
2024/01/03 18:47:39;;;;;;;2.37;2.17;;;8.60;99.90;;;8.71;100.00;96213.84;10497367;28;22101;-64
2024/01/03 18:52:44;;;;;;;3.10;1.90;;;8.70;99.90;;;8.75;100.00;96220.78;10454530;28;20257;-66
2024/01/03 18:57:47;;;;;;;2.83;2.17;;;8.50;99.90;;;8.71;100.00;96229.13;10406458;28;20817;-65
2024/01/03 19:02:50;;;;;;;2.40;2.10;;;8.50;99.90;;;8.74;100.00;96224.13;10461970;28;20219;-65
2024/01/03 19:07:55;;;;;;;2.90;1.80;;;8.50;99.90;;;8.64;100.00;96222.03;10499698;28;20232;-66
2024/01/03 19:12:59;;;;;;;2.07;1.70;;;8.50;99.90;;;8.52;100.00;96217.34;10491437;28;20871;-66
2024/01/03 19:18:02;;;;;;;2.93;2.00;;;8.30;99.90;;;8.54;100.00;96210.66;10500804;28;20239;-69
2024/01/03 19:23:07;;;;;;;2.27;1.60;;;8.30;99.90;;;8.50;100.00;96222.41;10485110;28;20664;-65
2024/01/03 19:28:10;;;;;;;2.10;2.00;;;8.20;99.90;;;8.55;100.00;96220.88;10493684;28;20224;-66
2024/01/03 19:33:14;;;;;;;2.63;1.60;;;8.20;99.90;;;8.50;100.00;96234.28;10441199;28;20221;-66
2024/01/03 19:38:20;;;;;;;1.83;1.70;;;8.20;99.90;;;8.45;100.00;96238.31;10481216;28;20784;-66
2024/01/03 19:43:24;;;;;;;1.93;1.70;;;8.20;99.90;;;8.55;100.00;96240.38;10492605;28;20815;-66
2024/01/03 19:48:28;;;;;;;4.20;3.80;;;8.20;99.90;;;8.48;100.00;96244.38;10494263;28;20958;-67
2024/01/03 19:53:32;;;;;;;2.80;2.60;;;8.10;99.90;;;8.68;100.00;96257.03;10497258;28;20235;-66
2024/01/03 19:58:38;;;;;;;3.50;2.40;;;8.10;99.90;;;8.85;100.00;96258.53;10485062;28;20244;-66
2024/01/03 20:03:43;;;;;;;2.43;2.23;;;8.20;99.90;;;8.73;99.94;96270.81;10440843;28;20242;-67
2024/01/03 20:08:47;;;;;;;7.83;6.80;;;8.20;99.90;;;8.88;99.35;96270.53;10491786;28;20558;-67
2024/01/03 20:13:51;;;;;;;13.90;9.60;;;8.30;99.90;;;8.71;100.00;96277.50;10487709;28;20265;-66
2024/01/03 20:18:54;;;;;;;4.50;2.83;;;8.20;99.90;;;8.84;99.36;96277.16;10479045;28;20257;-67
2024/01/03 20:23:59;;;;;;;2.90;2.50;;;8.20;99.90;;;8.85;97.67;96261.06;10469438;28;20232;-66
2024/01/03 20:29:04;;;;;;;4.87;4.33;;;8.30;99.90;;;8.76;96.39;96273.47;10475171;28;20237;-65
2024/01/03 20:34:09;;;;;;;3.33;3.03;;;8.30;99.90;;;8.90;96.57;96271.41;10413277;28;20789;-66
2024/01/03 20:39:15;;;;;;;3.37;3.00;;;8.50;99.90;;;8.87;98.09;96284.03;10460247;28;20228;-66
2024/01/03 20:44:19;;;;;;;4.40;2.80;;;8.40;99.90;;;8.75;98.70;96287.00;10488937;28;20354;-67
2024/01/03 20:49:23;;;;;;;3.37;2.90;;;8.20;99.90;;;8.71;100.00;96287.69;10497304;28;20242;-66
2024/01/03 20:54:28;;;;;;;1.70;1.58;;;8.20;99.90;;;8.75;99.16;96302.28;10486271;28;20225;-66
2024/01/03 20:59:35;;;;;;;3.07;2.67;;;8.30;99.90;;;8.79;98.93;96296.50;10463292;28;20228;-67
2024/01/03 21:04:38;;;;;;;3.20;1.63;;;8.30;99.90;;;8.64;100.00;96309.53;10487777;28;20230;-65
2024/01/03 21:09:44;;;;;;;2.63;2.10;;;8.20;99.90;;;8.71;99.61;96313.19;10486187;28;20234;-66
2024/01/03 21:14:47;;;;;;;2.57;2.23;;;8.20;99.90;;;8.78;99.23;96317.69;10490576;28;20810;-65
2024/01/03 21:19:50;;;;;;;3.87;1.90;;;8.20;99.90;;;8.83;98.19;96312.78;10497486;28;20227;-65